createdAt,value
2017-08-06T00:01:21.840Z,8.77
2017-08-06T00:03:48.246Z,4.73
2017-08-06T00:06:14.657Z,4.10
2017-08-06T00:08:41.824Z,8.23
2017-08-06T00:11:08.275Z,3.80
2017-08-06T00:13:34.720Z,7.70
2017-08-06T00:16:01.190Z,6.20
2017-08-06T00:18:27.682Z,7.00
2017-08-06T00:20:54.082Z,5.57
2017-08-06T00:23:20.956Z,2.43
2017-08-06T00:25:47.373Z,8.17
2017-08-06T00:28:13.868Z,3.83
2017-08-06T00:30:40.341Z,10.10
2017-08-06T00:33:06.792Z,7.93
2017-08-06T00:35:33.287Z,6.23
2017-08-06T00:37:59.692Z,7.87
2017-08-06T00:40:26.533Z,7.80
2017-08-06T00:42:52.964Z,11.00
2017-08-06T00:45:19.430Z,5.40
2017-08-06T00:47:45.887Z,5.80
2017-08-06T00:50:12.376Z,14.67
2017-08-06T00:52:38.923Z,5.60
2017-08-06T00:55:05.370Z,8.50
2017-08-06T00:57:31.832Z,5.10
2017-08-06T00:59:58.243Z,3.83
2017-08-06T01:02:24.632Z,8.53
2017-08-06T01:04:51.103Z,5.37
2017-08-06T01:07:18.639Z,5.37
2017-08-06T01:09:45.064Z,4.30
2017-08-06T01:12:11.556Z,3.33
2017-08-06T01:14:37.984Z,6.00
2017-08-06T01:17:04.474Z,7.40
2017-08-06T01:19:31.059Z,8.07
2017-08-06T01:21:57.522Z,4.30
2017-08-06T01:24:24.030Z,7.63
2017-08-06T01:26:50.508Z,6.80
2017-08-06T01:29:16.982Z,11.47
2017-08-06T01:31:43.492Z,4.10
2017-08-06T01:34:09.927Z,7.27
2017-08-06T01:36:36.394Z,8.93
2017-08-06T01:39:02.849Z,11.50
2017-08-06T01:41:29.333Z,6.93
2017-08-06T01:43:55.787Z,7.10
2017-08-06T01:46:22.254Z,7.13
2017-08-06T01:48:48.755Z,3.87
2017-08-06T01:51:15.182Z,14.73
2017-08-06T01:53:41.654Z,5.80
2017-08-06T01:56:08.098Z,8.23
2017-08-06T01:58:34.569Z,4.67
2017-08-06T02:01:01.071Z,4.47
2017-08-06T02:03:27.555Z,2.70
2017-08-06T02:05:53.938Z,6.80
2017-08-06T02:08:20.379Z,6.80
2017-08-06T02:10:46.851Z,6.00
2017-08-06T02:13:13.270Z,4.60
2017-08-06T02:15:39.721Z,2.93
2017-08-06T02:18:06.106Z,6.43
2017-08-06T02:20:32.577Z,7.63
2017-08-06T02:23:03.889Z,4.20
2017-08-06T02:25:30.367Z,2.33
2017-08-06T02:27:56.818Z,6.87
2017-08-06T02:30:23.307Z,3.77
2017-08-06T02:32:49.738Z,2.47
2017-08-06T02:35:16.181Z,7.47
2017-08-06T02:37:42.914Z,5.33
2017-08-06T02:40:09.350Z,15.80
2017-08-06T02:42:35.798Z,4.73
2017-08-06T02:45:02.248Z,3.60
2017-08-06T02:47:28.727Z,5.87
2017-08-06T02:49:55.200Z,5.10
2017-08-06T02:52:21.662Z,21.13
2017-08-06T02:54:48.151Z,8.10
2017-08-06T02:57:14.644Z,4.27
2017-08-06T02:59:41.121Z,5.63
2017-08-06T03:02:07.602Z,4.97
2017-08-06T03:04:34.117Z,9.13
2017-08-06T03:07:00.617Z,2.83
2017-08-06T03:09:27.019Z,6.90
2017-08-06T03:11:53.475Z,7.93
2017-08-06T03:14:20.113Z,8.73
2017-08-06T03:16:46.518Z,7.70
2017-08-06T03:19:13.512Z,7.23
2017-08-06T03:21:40.021Z,5.87
2017-08-06T03:24:07.482Z,8.93
2017-08-06T03:26:33.977Z,2.90
2017-08-06T03:29:01.363Z,3.23
2017-08-06T03:31:28.992Z,6.33
2017-08-06T03:33:55.462Z,10.13
2017-08-06T03:36:21.958Z,3.90
2017-08-06T03:38:48.462Z,3.70
2017-08-06T03:41:15.052Z,4.90
2017-08-06T03:43:42.606Z,2.67
2017-08-06T03:46:09.071Z,4.50
2017-08-06T03:48:36.908Z,5.60
2017-08-06T03:51:03.408Z,8.17
2017-08-06T03:53:29.873Z,4.40
2017-08-06T03:55:57.239Z,4.93
2017-08-06T03:58:23.655Z,5.90
2017-08-06T04:00:50.144Z,6.40
2017-08-06T04:03:16.656Z,3.17
2017-08-06T04:05:43.078Z,3.77
2017-08-06T04:08:09.556Z,6.37
2017-08-06T04:10:35.984Z,9.10
2017-08-06T04:13:03.580Z,7.13
2017-08-06T04:15:30.917Z,3.10
2017-08-06T04:17:57.336Z,5.13
2017-08-06T04:20:23.832Z,3.77
2017-08-06T04:22:50.344Z,5.57
2017-08-06T04:25:16.854Z,7.33
2017-08-06T04:27:43.335Z,4.47
2017-08-06T04:30:09.809Z,7.10
2017-08-06T04:32:36.305Z,14.13
2017-08-06T04:35:02.743Z,3.07
2017-08-06T04:37:29.231Z,7.33
2017-08-06T04:39:55.663Z,9.00
2017-08-06T04:42:22.179Z,5.97
2017-08-06T04:44:48.601Z,2.30
2017-08-06T04:47:15.087Z,3.03
2017-08-06T04:49:41.539Z,7.60
2017-08-06T04:52:07.958Z,4.33
2017-08-06T04:54:34.437Z,5.60
2017-08-06T04:57:00.836Z,6.27
2017-08-06T04:59:27.459Z,3.63
2017-08-06T05:01:53.865Z,9.13
2017-08-06T05:04:20.367Z,5.73
2017-08-06T05:06:46.891Z,11.97
2017-08-06T05:09:13.328Z,9.90
2017-08-06T05:11:39.820Z,8.60
2017-08-06T05:14:06.266Z,4.20
2017-08-06T05:16:33.260Z,4.93
2017-08-06T05:18:59.690Z,3.30
2017-08-06T05:21:26.160Z,5.93
2017-08-06T05:23:52.653Z,5.53
2017-08-06T05:26:19.119Z,6.07
2017-08-06T05:28:45.651Z,6.37
2017-08-06T05:31:12.083Z,3.00
2017-08-06T05:33:38.549Z,4.57
2017-08-06T05:36:05.030Z,4.03
2017-08-06T05:38:31.525Z,3.47
2017-08-06T05:40:58.844Z,4.23
2017-08-06T05:43:25.324Z,1.93
2017-08-06T05:45:51.743Z,6.47
2017-08-06T05:48:18.305Z,3.80
2017-08-06T05:50:44.742Z,5.70
2017-08-06T05:53:11.218Z,6.63
2017-08-06T05:55:37.671Z,3.80
2017-08-06T05:58:04.115Z,2.57
2017-08-06T06:00:30.569Z,4.13
2017-08-06T06:02:57.449Z,8.03
2017-08-06T06:05:24.003Z,2.13
2017-08-06T06:07:50.466Z,4.40
2017-08-06T06:10:16.918Z,4.97
2017-08-06T06:12:43.664Z,5.07
2017-08-06T06:15:10.083Z,4.87
2017-08-06T06:17:36.590Z,2.07
2017-08-06T06:20:03.048Z,5.37
2017-08-06T06:22:29.563Z,3.80
2017-08-06T06:24:56.023Z,4.67
2017-08-06T06:27:22.469Z,10.60
2017-08-06T06:29:48.884Z,7.40
2017-08-06T06:32:15.354Z,2.53
2017-08-06T06:34:41.824Z,6.13
2017-08-06T06:37:08.280Z,4.40
2017-08-06T06:39:34.763Z,3.80
2017-08-06T06:42:01.339Z,3.63
2017-08-06T06:44:27.765Z,3.60
2017-08-06T06:46:54.270Z,9.53
2017-08-06T06:49:20.733Z,3.40
2017-08-06T06:51:47.152Z,3.63
2017-08-06T06:54:13.639Z,4.27
2017-08-06T06:56:40.058Z,6.87
2017-08-06T06:59:06.475Z,7.13
2017-08-06T07:01:32.978Z,5.43
2017-08-06T07:03:59.411Z,2.43
2017-08-06T07:06:26.134Z,3.87
2017-08-06T07:08:52.623Z,9.17
2017-08-06T07:11:19.020Z,8.53
2017-08-06T07:13:45.475Z,7.70
2017-08-06T07:16:11.969Z,5.37
2017-08-06T07:18:38.443Z,5.07
2017-08-06T07:21:04.865Z,4.40
2017-08-06T07:23:31.350Z,5.90
2017-08-06T07:25:57.814Z,3.30
2017-08-06T07:28:24.592Z,4.27
2017-08-06T07:30:51.101Z,12.20
2017-08-06T07:33:17.582Z,4.70
2017-08-06T07:35:44.065Z,3.27
2017-08-06T07:38:10.512Z,9.13
2017-08-06T07:40:36.978Z,1.70
2017-08-06T07:43:04.207Z,6.47
2017-08-06T07:45:30.698Z,6.90
2017-08-06T07:47:58.111Z,5.53
2017-08-06T07:50:24.529Z,6.93
2017-08-06T07:52:51.027Z,2.07
2017-08-06T07:55:18.095Z,6.60
2017-08-06T07:57:44.905Z,9.10
2017-08-06T08:00:11.333Z,3.33
2017-08-06T08:02:37.829Z,4.20
2017-08-06T08:05:05.428Z,5.63
2017-08-06T08:07:31.839Z,4.13
2017-08-06T08:09:59.383Z,4.43
2017-08-06T08:12:25.891Z,4.87
2017-08-06T08:14:52.309Z,3.50
2017-08-06T08:17:19.093Z,7.60
2017-08-06T08:19:45.583Z,10.70
2017-08-06T08:22:12.075Z,5.40
2017-08-06T08:24:38.668Z,13.77
2017-08-06T08:27:06.180Z,10.30
2017-08-06T08:29:32.627Z,4.67
2017-08-06T08:31:59.049Z,17.03
2017-08-06T08:34:25.548Z,13.33
2017-08-06T08:36:52.028Z,6.00
2017-08-06T08:39:18.475Z,6.87
2017-08-06T08:41:44.920Z,5.43
2017-08-06T08:44:11.459Z,6.30
2017-08-06T08:46:37.934Z,4.37
2017-08-06T08:49:04.790Z,6.03
2017-08-06T08:51:31.219Z,13.67
2017-08-06T08:53:57.684Z,8.33
2017-08-06T08:56:24.171Z,15.47
2017-08-06T08:58:50.639Z,4.70
2017-08-06T09:01:17.103Z,8.43
2017-08-06T09:03:43.614Z,6.00
2017-08-06T09:06:10.153Z,6.37
2017-08-06T09:08:36.607Z,12.03
2017-08-06T09:11:03.096Z,11.10
2017-08-06T09:13:29.531Z,10.10
2017-08-06T09:15:55.996Z,7.40
2017-08-06T09:18:22.481Z,8.97
2017-08-06T09:20:48.994Z,4.50
2017-08-06T09:23:15.459Z,4.47
2017-08-06T09:25:41.955Z,4.30
2017-08-06T09:28:08.477Z,6.97
2017-08-06T09:30:35.947Z,5.73
2017-08-06T09:33:02.449Z,13.17
2017-08-06T09:35:29.957Z,14.97
2017-08-06T09:37:56.490Z,2.50
2017-08-06T09:40:25.026Z,11.13
2017-08-06T09:42:51.832Z,6.50
2017-08-06T09:45:19.478Z,4.03
2017-08-06T09:47:46.199Z,11.93
2017-08-06T09:50:12.738Z,11.47
2017-08-06T09:52:40.573Z,9.83
2017-08-06T09:55:07.305Z,3.77
2017-08-06T09:57:34.051Z,4.73
2017-08-06T10:00:00.578Z,7.03
2017-08-06T10:02:27.250Z,4.37
2017-08-06T10:04:53.866Z,2.50
2017-08-06T10:07:20.757Z,2.60
2017-08-06T10:09:47.370Z,3.90
2017-08-06T10:12:15.152Z,5.93
2017-08-06T10:14:41.783Z,8.57
2017-08-06T10:17:08.661Z,13.83
2017-08-06T10:19:35.173Z,13.00
2017-08-06T10:22:03.211Z,6.00
2017-08-06T10:24:30.760Z,9.30
2017-08-06T10:26:57.305Z,9.17
2017-08-06T10:29:24.600Z,13.87
2017-08-06T10:31:51.589Z,3.50
2017-08-06T10:34:18.950Z,7.47
2017-08-06T10:36:45.482Z,6.90
2017-08-06T10:39:11.998Z,6.50
2017-08-06T10:41:38.425Z,7.10
2017-08-06T10:44:05.830Z,6.17
2017-08-06T10:46:32.498Z,7.40
2017-08-06T10:48:58.988Z,4.50
2017-08-06T10:51:25.399Z,4.93
2017-08-06T10:53:51.983Z,14.10
2017-08-06T10:56:19.503Z,2.63
2017-08-06T10:58:45.987Z,5.30
2017-08-06T11:01:12.472Z,6.63
2017-08-06T11:03:38.932Z,2.40
2017-08-06T11:06:05.386Z,5.23
2017-08-06T11:08:32.833Z,2.37
2017-08-06T11:10:59.273Z,3.33
2017-08-06T11:13:25.725Z,2.73
2017-08-06T11:15:52.170Z,7.07
2017-08-06T11:18:19.355Z,8.30
2017-08-06T11:20:45.826Z,7.30
2017-08-06T11:23:13.145Z,2.87
2017-08-06T11:25:39.619Z,8.10
2017-08-06T11:28:06.127Z,14.30
2017-08-06T11:30:32.621Z,4.07
2017-08-06T11:33:02.249Z,15.30
2017-08-06T11:35:28.696Z,9.33
2017-08-06T11:37:55.189Z,5.83
2017-08-06T11:40:21.662Z,1.83
2017-08-06T11:42:48.095Z,6.87
2017-08-06T11:45:14.583Z,8.73
2017-08-06T11:47:41.030Z,3.83
2017-08-06T11:50:07.440Z,5.63
2017-08-06T11:52:33.905Z,5.10
2017-08-06T11:55:00.435Z,1.93
2017-08-06T11:57:26.849Z,1.80
2017-08-06T11:59:53.299Z,6.90
2017-08-06T12:02:19.812Z,4.60
2017-08-06T12:04:46.207Z,4.83
2017-08-06T12:07:12.676Z,10.50
2017-08-06T12:09:39.887Z,2.20
2017-08-06T12:12:06.411Z,2.20
2017-08-06T12:14:32.835Z,11.17
2017-08-06T12:16:59.495Z,5.43
2017-08-06T12:19:26.050Z,12.50
2017-08-06T12:21:52.479Z,12.60
2017-08-06T12:24:18.998Z,7.93
2017-08-06T12:26:45.468Z,6.97
2017-08-06T12:29:11.964Z,8.70
2017-08-06T12:31:38.377Z,6.97
2017-08-06T12:34:04.804Z,8.37
2017-08-06T12:36:31.344Z,3.10
2017-08-06T12:38:57.829Z,5.43
2017-08-06T12:41:24.345Z,11.83
2017-08-06T12:43:50.712Z,4.67
2017-08-06T12:46:17.168Z,7.07
2017-08-06T12:48:43.588Z,8.90
2017-08-06T12:51:10.143Z,4.93
2017-08-06T12:53:36.638Z,4.00
2017-08-06T12:56:03.039Z,5.40
2017-08-06T12:58:29.524Z,2.00
2017-08-06T13:00:55.960Z,5.73
2017-08-06T13:03:22.444Z,8.93
2017-08-06T13:05:49.765Z,6.93
2017-08-06T13:08:16.239Z,5.77
2017-08-06T13:10:42.809Z,8.80
2017-08-06T13:13:09.222Z,2.67
2017-08-06T13:15:36.540Z,3.80
2017-08-06T13:18:03.128Z,7.70
2017-08-06T13:20:29.558Z,4.70
2017-08-06T13:22:55.983Z,1.30
2017-08-06T13:25:22.406Z,8.73
2017-08-06T13:27:48.960Z,5.23
2017-08-06T13:30:15.391Z,7.43
2017-08-06T13:32:42.643Z,12.53
2017-08-06T13:35:09.128Z,4.70
2017-08-06T13:37:35.678Z,9.03
2017-08-06T13:40:03.021Z,17.80
2017-08-06T13:42:29.537Z,9.27
2017-08-06T13:44:56.940Z,8.33
2017-08-06T13:47:24.352Z,5.83
2017-08-06T13:49:50.802Z,11.03
2017-08-06T13:52:17.488Z,8.77
2017-08-06T13:54:44.339Z,4.93
2017-08-06T13:57:12.204Z,2.87
2017-08-06T13:59:39.052Z,6.37
2017-08-06T14:02:05.751Z,2.80
2017-08-06T14:04:32.244Z,6.70
2017-08-06T14:06:59.095Z,8.30
2017-08-06T14:09:25.775Z,10.10
2017-08-06T14:11:52.851Z,4.10
2017-08-06T14:14:19.420Z,2.30
2017-08-06T14:16:45.901Z,2.70
2017-08-06T14:19:12.373Z,10.10
2017-08-06T14:21:38.885Z,3.63
2017-08-06T14:24:06.686Z,2.10
2017-08-06T14:26:33.175Z,4.20
2017-08-06T14:29:00.087Z,4.60
2017-08-06T14:31:26.515Z,15.13
2017-08-06T14:33:53.001Z,3.57
2017-08-06T14:36:19.450Z,5.50
2017-08-06T14:38:45.914Z,4.10
2017-08-06T14:41:12.826Z,5.73
2017-08-06T14:43:39.528Z,5.87
2017-08-06T14:46:06.056Z,5.13
2017-08-06T14:48:32.509Z,15.10
2017-08-06T14:50:59.432Z,9.63
2017-08-06T14:53:25.877Z,6.80
2017-08-06T14:55:53.217Z,5.70
2017-08-06T14:58:19.677Z,8.40
2017-08-06T15:00:46.120Z,3.53
2017-08-06T15:03:12.636Z,4.50
2017-08-06T15:05:39.005Z,3.87
2017-08-06T15:08:05.516Z,3.93
2017-08-06T15:10:32.791Z,6.23
2017-08-06T15:13:00.378Z,5.27
2017-08-06T15:15:27.758Z,5.80
2017-08-06T15:17:54.270Z,24.07
2017-08-06T15:20:20.704Z,1.80
2017-08-06T15:22:47.132Z,4.53
2017-08-06T15:25:13.697Z,5.70
2017-08-06T15:27:41.132Z,9.60
2017-08-06T15:30:08.541Z,9.23
2017-08-06T15:32:35.005Z,3.30
2017-08-06T15:35:02.482Z,3.50
2017-08-06T15:37:29.894Z,12.50
2017-08-06T15:39:56.511Z,4.73
2017-08-06T15:42:23.020Z,15.43
2017-08-06T15:44:49.438Z,9.30
2017-08-06T15:47:15.885Z,10.40
2017-08-06T15:49:42.602Z,9.13
2017-08-06T15:52:09.055Z,4.10
2017-08-06T15:54:35.532Z,13.67
2017-08-06T15:57:03.730Z,8.67
2017-08-06T15:59:30.255Z,6.67
2017-08-06T16:01:56.675Z,11.47
2017-08-06T16:04:23.218Z,10.33
2017-08-06T16:06:50.640Z,6.13
2017-08-06T16:09:18.103Z,14.43
2017-08-06T16:11:44.667Z,2.20
2017-08-06T16:14:11.089Z,8.83
2017-08-06T16:16:37.566Z,5.57
2017-08-06T16:19:03.964Z,1.43
2017-08-06T16:21:30.473Z,5.17
2017-08-06T16:23:56.893Z,3.63
2017-08-06T16:26:23.457Z,15.20
2017-08-06T16:28:49.923Z,20.60
2017-08-06T16:31:16.517Z,4.23
2017-08-06T16:33:42.974Z,3.07
2017-08-06T16:36:09.374Z,0.90
2017-08-06T16:38:35.833Z,1.87
2017-08-06T16:41:02.317Z,7.93
2017-08-06T16:43:29.017Z,4.63
2017-08-06T16:45:55.472Z,8.73
2017-08-06T16:48:21.911Z,3.07
2017-08-06T16:50:48.430Z,2.53
2017-08-06T16:53:15.759Z,5.57
2017-08-06T16:55:42.237Z,4.77
2017-08-06T16:58:08.698Z,4.17
2017-08-06T17:00:35.252Z,3.13
2017-08-06T17:03:01.747Z,2.20
2017-08-06T17:05:28.227Z,2.60
2017-08-06T17:07:54.713Z,2.63
2017-08-06T17:10:21.132Z,4.77
2017-08-06T17:12:47.652Z,5.97
2017-08-06T17:15:14.167Z,7.87
2017-08-06T17:17:40.964Z,8.10
2017-08-06T17:20:08.461Z,13.70
2017-08-06T17:22:34.937Z,9.73
2017-08-06T17:25:01.391Z,1.40
2017-08-06T17:27:27.863Z,5.67
2017-08-06T17:29:54.339Z,4.47
2017-08-06T17:32:20.786Z,2.97
2017-08-06T17:34:47.716Z,5.47
2017-08-06T17:37:14.170Z,3.87
2017-08-06T17:39:40.592Z,2.10
2017-08-06T17:42:08.007Z,7.30
2017-08-06T17:44:34.447Z,12.63
2017-08-06T17:47:00.956Z,2.30
2017-08-06T17:49:27.402Z,4.53
2017-08-06T17:51:53.842Z,7.73
2017-08-06T17:54:20.771Z,5.37
2017-08-06T17:56:47.245Z,4.53
2017-08-06T17:59:13.707Z,2.07
2017-08-06T18:01:40.179Z,4.10
2017-08-06T18:04:06.607Z,1.33
2017-08-06T18:06:33.035Z,1.47
2017-08-06T18:08:59.574Z,2.67
2017-08-06T18:11:26.002Z,1.93
2017-08-06T18:13:52.722Z,2.97
2017-08-06T18:16:19.173Z,4.47
2017-08-06T18:18:45.915Z,8.53
2017-08-06T18:21:13.266Z,2.43
2017-08-06T18:23:52.579Z,2.43
2017-08-06T18:26:39.929Z,2.90
2017-08-06T18:29:19.812Z,3.07
2017-08-06T18:32:00.158Z,1.97
2017-08-06T18:34:39.821Z,3.93
2017-08-06T18:37:18.183Z,3.20
2017-08-06T18:39:53.301Z,4.70
2017-08-06T18:42:31.119Z,1.70
2017-08-06T18:45:13.652Z,3.90
2017-08-06T18:47:50.836Z,3.00
2017-08-06T18:50:31.056Z,4.43
2017-08-06T18:53:15.513Z,5.40
2017-08-06T18:55:53.816Z,2.27
2017-08-06T18:58:33.154Z,4.60
2017-08-06T19:01:09.781Z,5.63
2017-08-06T19:03:51.074Z,2.63
2017-08-06T19:06:32.196Z,2.60
2017-08-06T19:09:11.352Z,7.60
2017-08-06T19:11:52.828Z,2.50
2017-08-06T19:14:31.690Z,2.93
2017-08-06T19:17:12.919Z,2.93
2017-08-06T19:19:53.902Z,3.63
2017-08-06T19:22:34.864Z,3.87
2017-08-06T19:25:10.176Z,2.53
2017-08-06T19:27:51.561Z,4.17
2017-08-06T19:30:36.500Z,6.60
2017-08-06T19:33:24.403Z,10.37
2017-08-06T19:36:05.901Z,7.93
2017-08-06T19:38:48.379Z,2.33
2017-08-06T19:41:30.595Z,4.30
2017-08-06T19:44:13.518Z,1.93
2017-08-06T19:46:54.106Z,7.93
2017-08-06T19:49:36.595Z,2.87
2017-08-06T19:52:15.673Z,2.70
2017-08-06T19:57:40.071Z,1.20
2017-08-06T20:00:24.526Z,6.50
2017-08-06T20:05:49.862Z,2.60
2017-08-06T20:08:29.365Z,10.97
2017-08-06T20:11:09.485Z,8.40
2017-08-06T20:13:51.066Z,5.17
2017-08-06T20:16:32.677Z,1.80
2017-08-06T20:19:15.738Z,3.53
2017-08-06T20:21:57.745Z,8.70
2017-08-06T20:24:40.969Z,5.23
2017-08-06T20:27:21.049Z,3.23
2017-08-06T20:30:03.294Z,8.53
2017-08-06T20:32:46.180Z,2.47
2017-08-06T20:35:29.579Z,4.37
2017-08-06T20:38:12.457Z,5.60
2017-08-06T20:40:53.466Z,4.77
2017-08-06T20:43:39.107Z,2.70
2017-08-06T20:46:20.476Z,11.07
2017-08-06T20:49:03.820Z,8.43
2017-08-06T20:51:45.862Z,8.53
2017-08-06T20:54:29.458Z,2.70
2017-08-06T20:57:18.697Z,2.13
2017-08-06T21:00:00.637Z,1.77
2017-08-06T21:02:43.290Z,5.47
2017-08-06T21:05:26.495Z,4.80
2017-08-06T21:08:09.439Z,4.23
2017-08-06T21:10:41.186Z,1.80
2017-08-06T21:13:07.885Z,6.67
2017-08-06T21:15:34.362Z,5.80
2017-08-06T21:18:00.853Z,4.57
2017-08-06T21:20:27.271Z,4.70
2017-08-06T21:22:53.760Z,2.70
2017-08-06T21:25:20.223Z,3.40
2017-08-06T21:27:47.509Z,4.70
2017-08-06T21:30:13.984Z,3.37
2017-08-06T21:32:40.396Z,7.73
2017-08-06T21:35:06.834Z,10.57
2017-08-06T21:37:33.300Z,2.60
2017-08-06T21:39:59.774Z,3.60
2017-08-06T21:42:26.254Z,3.70
2017-08-06T21:44:52.656Z,3.03
2017-08-06T21:47:19.144Z,9.87
2017-08-06T21:49:45.663Z,7.10
2017-08-06T21:52:12.147Z,6.00
2017-08-06T21:54:38.655Z,7.47
2017-08-06T21:57:05.178Z,2.20
2017-08-06T21:59:31.599Z,4.63
2017-08-06T22:02:05.778Z,7.07
2017-08-06T22:04:32.674Z,2.50
2017-08-06T22:06:59.997Z,3.70
2017-08-06T22:09:27.338Z,4.83
2017-08-06T22:11:54.590Z,6.60
2017-08-06T22:14:21.683Z,9.13
2017-08-06T22:16:48.465Z,2.53
2017-08-06T22:19:16.523Z,4.10
2017-08-06T22:21:44.052Z,5.80
2017-08-06T22:24:11.896Z,8.20
2017-08-06T22:26:39.443Z,2.27
2017-08-06T22:29:06.903Z,2.27
2017-08-06T22:31:33.367Z,3.70
2017-08-06T22:34:00.930Z,9.20
2017-08-06T22:36:28.671Z,2.03
2017-08-06T22:38:55.499Z,3.80
2017-08-06T22:41:22.992Z,5.13
2017-08-06T22:43:50.850Z,5.53
2017-08-06T22:46:18.812Z,7.93
2017-08-06T22:48:46.418Z,6.73
2017-08-06T22:51:14.835Z,5.80
2017-08-06T22:53:43.279Z,6.63
2017-08-06T22:56:09.945Z,4.53
2017-08-06T22:58:36.498Z,2.67
2017-08-06T23:01:03.776Z,5.80
2017-08-06T23:03:30.580Z,4.97
2017-08-06T23:05:57.835Z,3.63
2017-08-06T23:08:24.216Z,6.77
2017-08-06T23:10:51.123Z,9.30
2017-08-06T23:13:17.567Z,3.23
2017-08-06T23:15:44.004Z,2.73
2017-08-06T23:18:10.474Z,5.30
2017-08-06T23:20:36.932Z,3.70
2017-08-06T23:23:03.822Z,6.73
2017-08-06T23:25:30.331Z,3.07
2017-08-06T23:27:56.750Z,3.93
2017-08-06T23:30:23.258Z,2.30
2017-08-06T23:32:49.935Z,3.30
2017-08-06T23:35:16.403Z,7.23
2017-08-06T23:37:42.792Z,4.60
2017-08-06T23:40:09.236Z,3.47
2017-08-06T23:42:35.696Z,5.50
2017-08-06T23:45:02.086Z,7.03
2017-08-06T23:47:28.545Z,14.37
2017-08-06T23:49:55.042Z,17.00
2017-08-06T23:52:21.605Z,47.90
2017-08-06T23:54:48.072Z,47.63
2017-08-06T23:57:14.515Z,67.80
2017-08-06T23:59:40.922Z,56.70
